Time;durP1;ratioP1;P1;durP2;ratioP2;P2;SDS_P1;SDS_P2;PMS_P1;PMS_P2;Temp;Humidity;BMP_temperature;BMP_pressure;BME280_temperature;BME280_humidity;BME280_pressure;Samples;Min_cycle;Max_cycle;Signal;HPM_P1;HPM_P2
2022/10/24 00:00:42;;;;;;;43.40;24.20;;;;;;;7.19;81.94;98862.39;88218;1301;98897;-72
2022/10/24 00:03:03;;;;;;;35.70;22.80;;;;;;;7.19;82.41;98855.92;88259;1295;22500;-72
2022/10/24 00:05:04;;;;;;;45.40;24.40;;;;;;;7.18;82.22;98852.44;88083;1288;21979;-72
2022/10/24 00:07:07;;;;;;;43.30;26.00;;;;;;;7.18;82.11;98850.88;88238;1284;99445;-72
2022/10/24 00:09:09;;;;;;;35.60;24.30;;;;;;;7.20;82.28;98857.97;87954;1296;22560;-72
2022/10/24 00:11:14;;;;;;;43.10;25.00;;;;;;;7.22;82.40;98862.80;87965;1292;22514;-72
2022/10/24 00:13:17;;;;;;;35.20;23.10;;;;;;;7.23;82.28;98868.52;87958;1288;98270;-72
2022/10/24 00:15:18;;;;;;;33.60;23.40;;;;;;;7.22;82.12;98869.08;88068;1296;22538;-72
2022/10/24 00:17:19;;;;;;;45.40;23.70;;;;;;;7.21;82.23;98868.08;87938;1307;22225;-73
2022/10/24 00:19:19;;;;;;;38.60;24.00;;;;;;;7.20;81.89;98868.97;87875;1285;98292;-72
2022/10/24 00:21:21;;;;;;;39.10;23.40;;;;;;;7.22;82.32;98865.95;87893;1292;22533;-72
2022/10/24 00:23:22;;;;;;;39.10;25.30;;;;;;;7.22;82.32;98862.08;87839;1284;22773;-73
2022/10/24 00:25:23;;;;;;;43.40;26.80;;;;;;;7.22;82.36;98861.38;87603;1285;99617;-73
2022/10/24 00:27:24;;;;;;;40.00;26.20;;;;;;;7.21;82.17;98863.17;87788;1285;22768;-72
2022/10/24 00:29:24;;;;;;;43.40;28.40;;;;;;;7.19;82.29;98861.31;87624;1286;22497;-72
2022/10/24 00:31:27;;;;;;;41.50;29.70;;;;;;;7.18;82.47;98853.33;87641;1278;98575;-73
2022/10/24 00:33:28;;;;;;;37.20;26.90;;;;;;;7.16;82.53;98853.21;87747;1310;22511;-72
2022/10/24 00:35:30;;;;;;;37.20;26.00;;;;;;;7.16;82.44;98857.23;87721;1300;22582;-73
2022/10/24 00:37:31;;;;;;;37.00;26.70;;;;;;;7.18;82.37;98861.19;87811;1288;98325;-73
2022/10/24 00:39:32;;;;;;;48.20;26.80;;;;;;;7.18;82.70;98857.33;87685;1287;25426;-74
2022/10/24 00:41:37;;;;;;;35.20;25.50;;;;;;;7.21;82.58;98854.80;87872;1286;22530;-72
2022/10/24 00:43:37;;;;;;;35.70;23.40;;;;;;;7.23;82.67;98848.10;87980;1287;99416;-73
2022/10/24 00:45:59;;;;;;;37.40;23.40;;;;;;;7.22;82.58;98838.67;87999;1302;23394;-73
2022/10/24 00:48:00;;;;;;;39.10;23.80;;;;;;;7.22;82.54;98836.58;88047;1309;22366;-73
2022/10/24 00:50:12;;;;;;;32.40;22.50;;;;;;;7.23;82.35;98837.23;87644;1295;97952;-73
2022/10/24 00:52:17;;;;;;;28.10;21.50;;;;;;;7.25;82.75;98836.80;88355;1304;22660;-74
2022/10/24 00:54:18;;;;;;;35.30;23.60;;;;;;;7.27;82.56;98838.49;88321;1310;98227;-73
2022/10/24 00:56:22;;;;;;;34.90;23.60;;;;;;;7.30;82.45;98844.98;88011;1294;22071;-73
2022/10/24 00:58:26;;;;;;;32.10;21.50;;;;;;;7.32;82.67;98845.31;88008;1288;22538;-73
2022/10/24 01:00:30;;;;;;;31.80;21.80;;;;;;;7.36;83.03;98845.01;87871;1287;97900;-72
2022/10/24 01:02:31;;;;;;;31.90;21.80;;;;;;;7.37;82.89;98848.81;87999;1295;22525;-72
2022/10/24 01:04:32;;;;;;;33.20;21.90;;;;;;;7.36;82.61;98845.67;88003;1303;22616;-73
2022/10/24 01:07:08;;;;;;;30.90;21.30;;;;;;;7.36;82.69;98847.44;87890;1296;99729;-72
2022/10/24 01:09:30;;;;;;;33.30;20.30;;;;;;;7.34;82.52;98853.27;88024;1292;22488;-72
2022/10/24 01:11:46;;;;;;;27.40;19.30;;;;;;;7.34;82.52;98851.15;88044;1285;22624;-72
2022/10/24 01:14:01;;;;;;;30.30;20.60;;;;;;;7.34;82.53;98851.52;87956;1293;97943;-72
2022/10/24 01:16:37;;;;;;;32.40;20.80;;;;;;;7.35;82.80;98849.90;87948;1278;22548;-73
2022/10/24 01:19:34;;;;;;;26.70;21.10;;;;;;;7.37;82.58;98851.09;87964;1307;98103;-73
2022/10/24 01:21:35;;;;;;;33.90;21.00;;;;;;;7.38;82.68;98845.45;87242;1298;22504;-73
2022/10/24 01:24:00;;;;;;;29.40;21.40;;;;;;;7.39;82.64;98846.98;87365;1298;22467;-72
2022/10/24 01:26:39;;;;;;;33.30;20.50;;;;;;;7.40;82.69;98844.86;87508;1298;98154;-72
2022/10/24 01:28:53;;;;;;;34.10;20.70;;;;;;;7.40;83.00;98839.60;87428;1293;22543;-73
2022/10/24 01:31:17;;;;;;;40.30;22.10;;;;;;;7.40;82.63;98828.23;87497;1298;98181;-73
2022/10/24 01:33:34;;;;;;;45.40;22.30;;;;;;;7.40;83.02;98828.41;87642;1299;22660;-73
2022/10/24 01:35:46;;;;;;;30.10;19.70;;;;;;;7.40;82.78;98825.95;87522;1301;22279;-73
2022/10/24 01:38:14;;;;;;;27.80;20.00;;;;;;;7.42;83.03;98824.85;87495;1315;100180;-73
2022/10/24 01:40:29;;;;;;;30.50;18.80;;;;;;;7.42;82.77;98819.05;86912;1306;22879;-73
2022/10/24 01:42:34;;;;;;;30.10;19.80;;;;;;;7.41;82.71;98824.34;86608;1310;99211;-73
2022/10/24 01:45:18;;;;;;;27.20;20.20;;;;;;;7.42;83.03;98823.08;87006;1306;22551;-72
2022/10/24 01:47:26;;;;;;;31.30;19.50;;;;;;;7.42;83.04;98817.64;86913;1297;22497;-72
2022/10/24 01:49:33;;;;;;;28.50;19.90;;;;;;;7.41;83.06;98815.41;86973;1305;98023;-72
2022/10/24 01:51:36;;;;;;;32.00;20.00;;;;;;;7.42;82.84;98807.85;86919;1300;22429;-73
2022/10/24 01:53:39;;;;;;;35.40;19.10;;;;;;;7.41;82.71;98806.33;86965;1304;22507;-73
2022/10/24 01:55:43;;;;;;;30.30;19.20;;;;;;;7.43;83.21;98805.55;86958;1321;99077;-73
2022/10/24 01:57:43;;;;;;;24.40;18.30;;;;;;;7.45;82.98;98803.08;87259;1296;22761;-72
2022/10/24 01:59:47;;;;;;;31.60;18.60;;;;;;;7.45;82.90;98804.08;87727;1301;22501;-73
2022/10/24 02:01:48;;;;;;;24.70;17.60;;;;;;;7.42;82.79;98806.12;87297;1304;98524;-72
2022/10/24 02:03:52;;;;;;;;;;;;;;;7.39;82.96;98805.88;87502;1306;22471;-72
2022/10/24 02:05:59;;;;;;;27.30;17.20;;;;;;;7.36;82.72;98806.36;87600;1301;22529;-73
2022/10/24 02:08:07;;;;;;;24.40;18.00;;;;;;;7.35;82.77;98811.10;87544;1301;98031;-73
2022/10/24 02:10:28;;;;;;;33.90;18.70;;;;;;;7.36;82.89;98810.19;87330;1317;22580;-72
2022/10/24 02:12:30;;;;;;;22.10;17.80;;;;;;;7.35;83.05;98811.98;87400;1286;99170;-73
2022/10/24 02:14:38;;;;;;;23.20;17.10;;;;;;;7.34;82.91;98815.01;87413;1294;22831;-73
2022/10/24 02:16:42;;;;;;;31.10;19.20;;;;;;;7.34;82.86;98820.40;87524;1318;22495;-74
2022/10/24 02:18:46;;;;;;;26.90;17.80;;;;;;;7.32;82.83;98822.73;87701;1310;98140;-72
2022/10/24 02:20:58;;;;;;;26.70;17.60;;;;;;;7.31;82.75;98814.04;87927;1309;22935;-73
2022/10/24 02:23:14;;;;;;;25.70;17.00;;;;;;;7.30;83.07;98810.42;87898;1308;22509;-73
2022/10/24 02:25:23;;;;;;;27.80;17.40;;;;;;;7.28;82.92;98806.83;87427;1310;99571;-73
2022/10/24 02:27:39;;;;;;;24.70;17.70;;;;;;;7.26;82.86;98807.42;87349;1309;22545;-72
2022/10/24 02:29:55;;;;;;;24.50;17.70;;;;;;;7.26;82.94;98794.64;87371;1309;23305;-73
2022/10/24 02:31:57;;;;;;;33.20;18.30;;;;;;;7.25;83.17;98789.77;87327;1288;99327;-73
2022/10/24 02:33:59;;;;;;;26.40;18.20;;;;;;;7.24;82.90;98795.78;87479;1307;22508;-73
2022/10/24 02:36:02;;;;;;;24.80;17.80;;;;;;;7.23;82.84;98802.11;87279;1278;22510;-73
2022/10/24 02:38:12;;;;;;;28.60;17.50;;;;;;;7.23;82.97;98807.00;87177;1310;97688;-73
2022/10/24 02:40:15;;;;;;;27.60;15.90;;;;;;;7.24;83.13;98802.59;87208;1309;22456;-73
2022/10/24 02:42:18;;;;;;;30.00;18.20;;;;;;;7.24;83.03;98794.73;87027;1302;99932;-72
2022/10/24 02:44:20;;;;;;;26.70;17.60;;;;;;;7.24;82.99;98794.19;87047;1310;23375;-73
2022/10/24 02:46:22;;;;;;;26.40;17.70;;;;;;;7.24;83.24;98795.79;87116;1310;25860;-73
2022/10/24 02:48:29;;;;;;;26.10;16.10;;;;;;;7.23;83.02;98793.19;86295;1307;99380;-71
2022/10/24 02:50:31;;;;;;;24.30;16.50;;;;;;;7.22;83.26;98795.49;86400;1310;25404;-71
2022/10/24 02:52:33;;;;;;;22.00;16.70;;;;;;;7.20;82.85;98801.52;86195;1304;25685;-73
2022/10/24 02:54:34;;;;;;;26.30;16.40;;;;;;;7.19;83.19;98802.62;86223;1310;99168;-73
2022/10/24 02:56:39;;;;;;;22.60;16.90;;;;;;;7.17;83.04;98799.36;86335;1307;22494;-73
2022/10/24 02:58:40;;;;;;;23.30;16.70;;;;;;;7.16;83.17;98795.74;86130;1305;24312;-72
2022/10/24 03:00:41;;;;;;;21.70;15.40;;;;;;;7.14;83.40;98788.48;86159;1288;99209;-72
2022/10/24 03:02:42;;;;;;;22.10;15.20;;;;;;;7.11;83.07;98786.31;86223;1310;24302;-73
2022/10/24 03:04:42;;;;;;;20.40;15.70;;;;;;;7.10;83.03;98791.05;86274;1310;22526;-72
2022/10/24 03:06:44;;;;;;;;;;;;;;;7.10;83.13;98792.29;86371;1294;99571;-74
2022/10/24 03:08:44;;;;;;;23.00;16.30;;;;;;;7.08;83.17;98793.95;86529;1281;22533;-72
2022/10/24 03:10:45;;;;;;;25.20;16.10;;;;;;;7.05;82.93;98796.49;86372;1309;25860;-72
2022/10/24 03:12:47;;;;;;;25.40;16.30;;;;;;;7.00;83.15;98798.57;86322;1309;99229;-71
2022/10/24 03:14:47;;;;;;;19.50;15.60;;;;;;;6.97;83.07;98798.18;86477;1300;25466;-72
2022/10/24 03:16:48;;;;;;;22.60;15.80;;;;;;;6.96;83.04;98794.17;86395;1310;23473;-72
2022/10/24 03:18:49;;;;;;;24.50;17.70;;;;;;;6.92;82.99;98785.79;86237;1310;99035;-74
2022/10/24 03:20:50;;;;;;;27.40;16.80;;;;;;;6.95;83.21;98788.13;86395;1300;24385;-72
2022/10/24 03:22:51;;;;;;;27.10;16.20;;;;;;;6.95;83.14;98791.08;86401;1310;26630;-72
2022/10/24 03:24:52;;;;;;;23.20;16.70;;;;;;;6.95;82.98;98786.19;86300;1310;99129;-72
2022/10/24 03:26:52;;;;;;;29.80;16.20;;;;;;;6.95;83.05;98784.27;86403;1291;22629;-73
2022/10/24 03:28:53;;;;;;;21.80;17.50;;;;;;;6.96;83.11;98787.72;86361;1285;22589;-73
2022/10/24 03:30:55;;;;;;;23.40;17.20;;;;;;;6.97;83.18;98793.26;86280;1305;99347;-72
2022/10/24 03:32:56;;;;;;;23.50;17.40;;;;;;;6.99;83.22;98793.38;86438;1295;24251;-72
2022/10/24 03:34:57;;;;;;;35.00;17.90;;;;;;;6.99;83.43;98784.67;86969;1307;22484;-72
2022/10/24 03:36:57;;;;;;;51.00;19.30;;;;;;;7.03;83.45;98782.08;86730;1307;98985;-73
2022/10/24 03:38:59;;;;;;;28.30;17.10;;;;;;;7.04;83.41;98777.66;86414;1295;25663;-73
2022/10/24 03:41:00;;;;;;;36.60;16.00;;;;;;;7.05;83.53;98773.80;86289;1287;22383;-72
2022/10/24 03:43:01;;;;;;;17.70;14.70;;;;;;;7.04;83.17;98766.84;86206;1310;99335;-72
2022/10/24 03:45:02;;;;;;;28.70;15.80;;;;;;;7.03;83.48;98759.17;86254;1288;25338;-72
2022/10/24 03:47:03;;;;;;;28.40;15.20;;;;;;;7.02;83.37;98752.06;86245;1310;23981;-73
2022/10/24 03:49:04;;;;;;;24.30;16.50;;;;;;;7.01;83.31;98752.64;86150;1288;97922;-72
2022/10/24 03:51:05;;;;;;;28.20;15.50;;;;;;;7.02;83.50;98760.60;86322;1285;22948;-72
2022/10/24 03:53:06;;;;;;;22.50;16.00;;;;;;;7.05;83.52;98767.83;86299;1295;23343;-72
2022/10/24 03:55:07;;;;;;;27.30;16.40;;;;;;;7.07;83.43;98768.98;86360;1307;99456;-72
2022/10/24 03:57:08;;;;;;;22.50;15.60;;;;;;;7.10;83.71;98773.77;86209;1286;22538;-72
2022/10/24 03:59:10;;;;;;;23.20;15.40;;;;;;;7.09;83.62;98773.44;86187;1295;23089;-72
2022/10/24 04:01:16;;;;;;;19.50;16.10;;;;;;;7.13;83.56;98778.70;86192;1295;100767;-71
2022/10/24 04:03:17;;;;;;;20.90;15.70;;;;;;;7.15;83.60;98781.43;86371;1309;22478;-72
2022/10/24 04:05:18;;;;;;;24.90;17.20;;;;;;;7.17;83.75;98780.48;86413;1292;25381;-72
2022/10/24 04:07:19;;;;;;;22.20;16.60;;;;;;;7.19;83.75;98779.02;86280;1310;99260;-71
2022/10/24 04:09:20;;;;;;;30.20;17.80;;;;;;;7.21;83.81;98782.59;86889;1284;22557;-72
2022/10/24 04:11:22;;;;;;;21.80;15.50;;;;;;;7.24;83.64;98787.20;87749;1288;22472;-73
2022/10/24 04:13:23;;;;;;;27.90;15.60;;;;;;;7.26;83.56;98783.32;87787;1307;98003;-73
2022/10/24 04:15:24;;;;;;;25.30;16.30;;;;;;;7.24;83.63;98779.70;87870;1301;22516;-73
2022/10/24 04:17:26;;;;;;;23.40;16.90;;;;;;;7.29;83.81;98784.91;87883;1295;22695;-74
2022/10/24 04:19:27;;;;;;;22.30;17.70;;;;;;;7.32;83.59;98779.91;86977;1281;98291;-73
2022/10/24 04:21:27;;;;;;;27.00;18.00;;;;;;;7.37;83.59;98778.34;86955;1287;22594;-73
2022/10/24 04:23:33;;;;;;;28.90;18.40;;;;;;;7.41;83.84;98770.54;86291;1308;22509;-73
2022/10/24 04:25:34;;;;;;;29.90;18.10;;;;;;;7.44;83.85;98770.58;86306;1285;99575;-73
2022/10/24 04:27:39;;;;;;;22.30;17.20;;;;;;;7.47;83.91;98778.64;86219;1285;24234;-72
2022/10/24 04:29:40;;;;;;;23.50;17.80;;;;;;;7.51;83.96;98774.30;86366;1285;22474;-72
2022/10/24 04:31:41;;;;;;;42.50;18.50;;;;;;;7.53;83.97;98776.66;86172;1285;99331;-72
2022/10/24 04:33:42;;;;;;;33.20;18.60;;;;;;;7.54;83.68;98769.81;86122;1281;24199;-72
2022/10/24 04:35:47;;;;;;;27.90;17.30;;;;;;;7.56;83.81;98780.20;86252;1288;22513;-72
2022/10/24 04:37:47;;;;;;;26.10;16.90;;;;;;;7.59;83.64;98780.82;86138;1288;100008;-72
2022/10/24 04:39:48;;;;;;;22.90;17.90;;;;;;;7.61;83.90;98783.72;86183;1295;22564;-72
2022/10/24 04:41:49;;;;;;;31.80;19.40;;;;;;;7.63;83.98;98785.20;86213;1295;22694;-72
2022/10/24 04:43:51;;;;;;;26.10;16.70;;;;;;;7.64;83.75;98777.98;86093;1281;99758;-72
2022/10/24 04:45:52;;;;;;;26.00;16.90;;;;;;;7.65;83.82;98772.02;86233;1288;22647;-73
2022/10/24 04:47:53;;;;;;;31.90;17.00;;;;;;;7.66;83.96;98773.55;86147;1287;24247;-73
2022/10/24 04:49:54;;;;;;;22.60;16.50;;;;;;;7.67;83.81;98775.98;86256;1278;99195;-73
2022/10/24 04:51:55;;;;;;;25.40;18.90;;;;;;;7.68;83.84;98782.75;86397;1284;22997;-73
2022/10/24 04:53:56;;;;;;;32.20;19.10;;;;;;;7.69;84.04;98784.96;86214;1295;22564;-73
2022/10/24 04:55:57;;;;;;;33.10;18.40;;;;;;;7.71;84.06;98785.08;86127;1288;99109;-72
2022/10/24 04:57:58;;;;;;;34.00;18.70;;;;;;;7.73;83.97;98785.90;86228;1288;25387;-72
2022/10/24 04:59:59;;;;;;;33.00;18.80;;;;;;;7.73;84.02;98787.79;86191;1285;22523;-72
2022/10/24 05:01:59;;;;;;;27.90;18.10;;;;;;;7.74;84.05;98787.58;86148;1289;99027;-72
2022/10/24 05:04:00;;;;;;;27.90;18.20;;;;;;;7.74;83.55;98786.02;86274;1281;22582;-72
2022/10/24 05:06:01;;;;;;;28.90;17.50;;;;;;;7.74;83.68;98776.90;86177;1287;22481;-73
2022/10/24 05:08:02;;;;;;;26.30;18.40;;;;;;;7.74;83.97;98772.00;86117;1289;99105;-74
2022/10/24 05:10:04;;;;;;;25.60;17.60;;;;;;;7.75;83.67;98778.09;86331;1292;22468;-73
2022/10/24 05:12:05;;;;;;;29.90;18.20;;;;;;;7.75;83.89;98779.65;86300;1294;22588;-73
2022/10/24 05:14:06;;;;;;;29.20;18.30;;;;;;;7.75;83.69;98774.92;86192;1284;98933;-73
2022/10/24 05:16:07;;;;;;;30.80;16.80;;;;;;;7.75;83.94;98770.91;86223;1292;23116;-74
2022/10/24 05:18:08;;;;;;;27.20;17.60;;;;;;;7.75;83.75;98758.88;86174;1286;99605;-73
2022/10/24 05:20:10;;;;;;;29.50;17.50;;;;;;;7.75;84.23;98758.66;86262;1286;22499;-73
2022/10/24 05:22:10;;;;;;;24.40;17.50;;;;;;;7.77;83.66;98759.67;86355;1281;23798;-73
2022/10/24 05:24:11;;;;;;;26.60;18.70;;;;;;;7.78;83.95;98755.25;86426;1287;98455;-73
2022/10/24 05:26:12;;;;;;;30.50;18.30;;;;;;;7.79;84.00;98752.60;86677;1286;22619;-73
2022/10/24 05:28:13;;;;;;;26.40;19.40;;;;;;;7.81;83.96;98754.39;86530;1284;22495;-73
2022/10/24 05:30:14;;;;;;;21.00;18.00;;;;;;;7.84;84.05;98757.27;86321;1295;98085;-73
2022/10/24 05:32:15;;;;;;;27.70;19.90;;;;;;;7.86;84.27;98759.27;86572;1285;24257;-72
2022/10/24 05:34:16;;;;;;;27.90;19.20;;;;;;;7.88;84.12;98766.19;86609;1294;22708;-72
2022/10/24 05:36:17;;;;;;;30.50;21.00;;;;;;;7.90;84.16;98770.15;86592;1294;98547;-73
2022/10/24 05:38:18;;;;;;;34.30;21.50;;;;;;;7.91;83.97;98773.95;86654;1285;22613;-73
2022/10/24 05:40:19;;;;;;;31.20;21.20;;;;;;;7.92;84.34;98775.65;86701;1289;22640;-73
2022/10/24 05:42:20;;;;;;;40.90;21.30;;;;;;;7.93;84.03;98772.48;86627;1294;98982;-72
2022/10/24 05:44:21;;;;;;;;;;;;;;;7.94;83.93;98783.07;86655;1282;25379;-73
2022/10/24 05:46:22;;;;;;;35.90;20.70;;;;;;;7.96;83.92;98781.27;86632;1285;24266;-73
2022/10/24 05:48:23;;;;;;;38.40;22.40;;;;;;;7.96;84.03;98778.29;86453;1291;99699;-72
2022/10/24 05:50:25;;;;;;;43.50;22.40;;;;;;;7.96;84.45;98775.51;86763;1286;22547;-74
2022/10/24 05:52:26;;;;;;;36.90;22.50;;;;;;;8.01;83.96;98775.29;86764;1285;24348;-73
2022/10/24 05:54:27;;;;;;;44.80;23.00;;;;;;;8.00;84.28;98777.44;86608;1292;98814;-73
2022/10/24 05:56:28;;;;;;;36.60;23.00;;;;;;;8.05;83.96;98789.33;86626;1287;22502;-73
2022/10/24 05:58:29;;;;;;;30.20;22.10;;;;;;;8.05;84.21;98771.98;86765;1288;25381;-73
2022/10/24 06:00:32;;;;;;;35.70;22.70;;;;;;;8.05;84.40;98767.61;86776;1281;98260;-74
2022/10/24 06:02:33;;;;;;;40.40;23.90;;;;;;;8.06;84.23;98769.67;86694;1286;22464;-74
2022/10/24 06:04:34;;;;;;;;;;;;;;;8.08;84.27;98772.39;86581;1284;22478;-73
2022/10/24 06:06:40;;;;;;;33.60;22.10;;;;;;;8.10;84.47;98771.26;86659;1292;85122;-73
2022/10/24 06:08:41;;;;;;;41.80;22.40;;;;;;;8.11;84.27;98766.83;86721;1291;22614;-73
2022/10/24 06:10:46;;;;;;;35.20;23.30;;;;;;;8.14;84.25;98778.77;86473;1288;22493;-73
2022/10/24 06:12:47;;;;;;;44.90;23.20;;;;;;;8.17;84.29;98785.86;86954;1287;97869;-73
2022/10/24 06:14:48;;;;;;;51.30;24.20;;;;;;;8.19;84.22;98786.09;86582;1287;22481;-73
2022/10/24 06:16:49;;;;;;;38.80;23.90;;;;;;;8.20;84.28;98786.61;86610;1285;23200;-71
2022/10/24 06:18:50;;;;;;;35.30;23.30;;;;;;;8.24;84.38;98785.04;86598;1281;99799;-71
2022/10/24 06:20:51;;;;;;;35.90;25.20;;;;;;;8.25;84.40;98784.80;86596;1294;24360;-72
2022/10/24 06:22:51;;;;;;;44.00;24.20;;;;;;;8.27;84.32;98790.52;86564;1289;23027;-72
2022/10/24 06:24:52;;;;;;;34.40;23.90;;;;;;;8.30;84.17;98797.04;86581;1285;98269;-72
2022/10/24 06:26:53;;;;;;;55.70;25.20;;;;;;;8.32;84.37;98791.00;86537;1284;24359;-73
2022/10/24 06:28:54;;;;;;;46.80;24.90;;;;;;;8.34;84.62;98802.80;86378;1284;22528;-73
2022/10/24 06:30:55;;;;;;;44.50;25.80;;;;;;;8.38;84.61;98807.22;86225;1287;99376;-74
2022/10/24 06:32:56;;;;;;;48.30;25.50;;;;;;;8.40;84.30;98808.01;86520;1286;22987;-73
2022/10/24 06:34:57;;;;;;;65.30;29.10;;;;;;;8.43;84.43;98801.41;86464;1288;22547;-73
2022/10/24 06:36:57;;;;;;;72.10;31.30;;;;;;;8.45;84.33;98808.67;86500;1283;98979;-73
2022/10/24 06:38:58;;;;;;;86.50;31.20;;;;;;;8.47;84.61;98809.83;86555;1285;24229;-73
2022/10/24 06:41:07;;;;;;;81.10;31.40;;;;;;;8.50;84.55;98813.55;86484;1291;22686;-73
2022/10/24 06:43:08;;;;;;;62.00;30.80;;;;;;;8.53;84.51;98807.29;86283;1281;100586;-73
2022/10/24 06:45:09;;;;;;;58.40;30.30;;;;;;;8.57;84.44;98809.08;86487;1278;23029;-73
2022/10/24 06:47:10;;;;;;;;;;;;;;;8.60;84.60;98807.38;86405;1289;22536;-73
2022/10/24 06:49:12;;;;;;;69.40;31.00;;;;;;;8.62;84.31;98805.86;86313;1288;85864;-73
2022/10/24 06:51:15;;;;;;;51.30;30.70;;;;;;;8.66;84.53;98803.27;86383;1286;22617;-73
2022/10/24 06:53:15;;;;;;;65.90;30.00;;;;;;;8.69;84.61;98805.40;86342;1294;24658;-73
2022/10/24 06:55:17;;;;;;;51.60;30.00;;;;;;;8.72;84.27;98809.13;86216;1285;98133;-73
2022/10/24 06:57:17;;;;;;;;;;;;;;;8.75;84.50;98816.16;86534;1285;22545;-73
2022/10/24 06:59:18;;;;;;;63.80;28.70;;;;;;;8.78;84.61;98814.48;86398;1284;25364;-73
2022/10/24 07:01:23;;;;;;;53.20;29.10;;;;;;;8.81;84.88;98816.27;86304;1285;99056;-73
2022/10/24 07:03:23;;;;;;;70.70;27.60;;;;;;;8.84;84.32;98812.98;86160;1284;246813;-73
2022/10/24 07:05:25;;;;;;;72.50;29.40;;;;;;;8.88;84.38;98813.34;86259;1288;24609;-73
2022/10/24 07:07:25;;;;;;;;;;;;;;;8.92;84.34;98811.42;86294;1295;98126;-73
2022/10/24 07:09:27;;;;;;;61.80;28.50;;;;;;;8.94;84.55;98816.59;86219;1284;25543;-73
2022/10/24 07:11:29;;;;;;;53.20;29.90;;;;;;;8.99;84.43;98811.64;86253;1292;22935;-73
2022/10/24 07:13:30;;;;;;;68.60;28.60;;;;;;;9.05;84.44;98809.46;86281;1286;99565;-73
2022/10/24 07:15:31;;;;;;;61.50;27.50;;;;;;;9.11;84.75;98807.10;86212;1288;22507;-72
2022/10/24 07:17:38;;;;;;;58.70;26.00;;;;;;;9.15;84.49;98808.13;86306;1292;24904;-74
2022/10/24 07:19:39;;;;;;;60.60;27.60;;;;;;;9.18;84.78;98812.38;86145;1284;99240;-73
2022/10/24 07:21:40;;;;;;;;;;;;;;;9.23;84.66;98807.23;86190;1294;22946;-74
2022/10/24 07:23:41;;;;;;;47.70;29.00;;;;;;;9.26;84.63;98802.54;86414;1283;21798;-72
2022/10/24 07:38:17;;;;;;;56.90;30.70;;;;;;;9.95;84.35;98800.71;84737;1304;575483;-74
2022/10/24 07:40:19;;;;;;;47.00;29.10;;;;;;;10.08;84.58;98798.33;85666;1301;22501;-73
2022/10/24 07:42:21;;;;;;;48.90;28.80;;;;;;;10.11;84.57;98801.16;85367;1294;850717;-74
2022/10/24 07:44:23;;;;;;;46.10;28.10;;;;;;;10.16;84.68;98800.56;85798;1307;22713;-74
2022/10/24 07:46:26;;;;;;;55.00;27.30;;;;;;;10.23;84.95;98796.72;85994;1298;22503;-73
2022/10/24 07:48:28;;;;;;;51.30;29.20;;;;;;;10.33;84.85;98799.90;86513;1292;98899;-74
2022/10/24 07:50:30;;;;;;;47.60;28.80;;;;;;;10.49;85.08;98797.73;86130;1294;22516;-73
2022/10/24 07:52:31;;;;;;;48.20;28.40;;;;;;;10.68;85.31;98795.54;86405;1291;22540;-75
2022/10/24 07:54:33;;;;;;;45.30;26.50;;;;;;;10.87;85.29;98800.52;86413;1290;98745;-73
2022/10/24 07:56:35;;;;;;;39.20;26.20;;;;;;;11.03;85.14;98791.61;86406;1292;22510;-74
2022/10/24 07:58:37;;;;;;;38.00;25.80;;;;;;;11.19;85.09;98786.22;86333;1291;26215;-74
2022/10/24 08:00:39;;;;;;;39.10;25.60;;;;;;;11.34;85.00;98782.23;86196;1295;97503;-73
2022/10/24 08:02:41;;;;;;;36.40;25.10;;;;;;;11.48;84.90;98783.39;86377;1294;25283;-73
2022/10/24 08:04:43;;;;;;;43.70;25.90;;;;;;;11.63;84.90;98788.70;86563;1293;22924;-74
2022/10/24 08:06:45;;;;;;;46.90;26.00;;;;;;;11.78;84.91;98789.31;86217;1292;98755;-73
2022/10/24 08:08:47;;;;;;;37.30;24.60;;;;;;;11.93;84.83;98790.94;86399;1292;22720;-75
2022/10/24 08:10:49;;;;;;;40.30;22.20;;;;;;;12.07;84.67;98795.30;86611;1289;22477;-70
2022/10/24 08:12:50;;;;;;;41.70;23.10;;;;;;;12.20;84.58;98797.52;86604;1285;98868;-73
2022/10/24 08:14:54;;;;;;;42.50;21.90;;;;;;;12.35;84.51;98800.03;86575;1289;23985;-74
2022/10/24 08:16:56;;;;;;;35.10;23.20;;;;;;;12.50;84.66;98798.92;86466;1284;24239;-73
2022/10/24 08:18:57;;;;;;;35.20;20.70;;;;;;;12.68;84.49;98797.02;86116;1282;98705;-72
2022/10/24 08:21:02;;;;;;;28.90;21.90;;;;;;;12.82;84.27;98795.67;86459;1293;24184;-74
2022/10/24 08:23:03;;;;;;;29.90;20.70;;;;;;;12.92;84.03;98794.52;86489;1284;23441;-73
2022/10/24 08:25:08;;;;;;;43.40;22.00;;;;;;;13.03;84.03;98791.73;87129;1282;98799;-73
2022/10/24 08:27:10;;;;;;;32.20;20.20;;;;;;;13.14;84.11;98788.96;86980;1285;22485;-73
2022/10/24 08:29:13;;;;;;;31.40;20.30;;;;;;;13.23;83.79;98789.11;86350;1279;22583;-73
2022/10/24 08:31:24;;;;;;;33.20;21.20;;;;;;;13.29;83.64;98783.63;86301;1285;98929;-73
2022/10/24 08:33:26;;;;;;;28.90;19.70;;;;;;;13.35;83.79;98776.02;86403;1286;23811;-73
2022/10/24 08:35:27;;;;;;;30.40;18.30;;;;;;;13.50;83.77;98770.00;86161;1288;24250;-73
2022/10/24 08:37:29;;;;;;;38.90;18.20;;;;;;;13.66;83.96;98772.29;86101;1287;98757;-73
2022/10/24 08:39:30;;;;;;;24.40;17.10;;;;;;;13.81;83.70;98771.68;86129;1291;24247;-73
2022/10/24 08:41:37;;;;;;;28.50;17.30;;;;;;;13.93;83.60;98778.14;86292;1294;22590;-73
2022/10/24 08:43:39;;;;;;;28.40;17.10;;;;;;;14.01;83.27;98777.33;86045;1282;97419;-73
2022/10/24 08:45:53;;;;;;;35.10;16.20;;;;;;;14.12;83.36;98765.95;86310;1288;22531;-74
2022/10/24 08:48:06;;;;;;;28.90;16.10;;;;;;;14.28;83.23;98752.89;86343;1295;22674;-75
2022/10/24 08:50:24;;;;;;;27.80;16.90;;;;;;;14.40;83.38;98740.08;86199;1294;98621;-72
2022/10/24 08:52:50;;;;;;;23.70;16.20;;;;;;;14.56;83.26;98737.38;86300;1288;22621;-72
2022/10/24 08:54:53;;;;;;;34.80;15.10;;;;;;;14.71;83.18;98734.98;86260;1286;100078;-73
2022/10/24 08:56:58;;;;;;;27.80;16.30;;;;;;;14.85;82.90;98740.45;86319;1285;24283;-74
2022/10/24 08:59:02;;;;;;;20.60;14.80;;;;;;;14.93;82.70;98740.02;86452;1284;22680;-74
2022/10/24 09:01:11;;;;;;;30.40;15.00;;;;;;;15.02;82.79;98740.61;86263;1284;98628;-73
2022/10/24 09:03:19;;;;;;;23.90;12.70;;;;;;;15.16;82.82;98743.20;86330;1291;22479;-73
2022/10/24 09:05:30;;;;;;;22.90;13.50;;;;;;;15.38;82.87;98738.29;86447;1289;26996;-72
2022/10/24 09:07:31;;;;;;;19.60;14.30;;;;;;;15.54;82.66;98730.74;86442;1285;97533;-72
2022/10/24 09:09:41;;;;;;;27.00;13.60;;;;;;;15.64;82.48;98732.51;86414;1281;22752;-73
2022/10/24 09:12:05;;;;;;;26.80;11.40;;;;;;;15.73;82.35;98735.55;86525;1284;25306;-73
2022/10/24 09:14:35;;;;;;;23.00;11.60;;;;;;;15.82;82.22;98737.61;86260;1282;98739;-73
2022/10/24 09:16:40;;;;;;;23.40;12.30;;;;;;;15.92;82.21;98743.44;86422;1275;22552;-72
2022/10/24 09:18:45;;;;;;;25.80;11.80;;;;;;;15.98;81.99;98744.02;86245;1282;97798;-73
2022/10/24 09:20:48;;;;;;;24.40;12.60;;;;;;;16.05;81.99;98745.67;86968;1282;26725;-73
2022/10/24 09:22:52;;;;;;;19.50;12.00;;;;;;;16.09;81.79;98744.66;86408;1290;22589;-72
2022/10/24 09:25:00;;;;;;;20.10;12.10;;;;;;;16.11;81.60;98739.35;86227;1291;98479;-73
2022/10/24 09:27:08;;;;;;;24.40;12.50;;;;;;;16.11;81.61;98735.95;86683;1288;25887;-73
2022/10/24 09:29:09;;;;;;;20.50;12.60;;;;;;;16.11;81.53;98739.19;87210;1290;22555;-73
2022/10/24 09:31:17;;;;;;;15.40;11.90;;;;;;;16.11;81.53;98741.09;86342;1282;98697;-73
2022/10/24 09:33:29;;;;;;;18.30;12.50;;;;;;;16.12;81.48;98743.73;86329;1291;25537;-73
2022/10/24 09:35:34;;;;;;;18.50;13.00;;;;;;;16.14;81.37;98751.39;86418;1291;22577;-72
2022/10/24 09:37:38;;;;;;;27.90;12.40;;;;;;;16.14;81.44;98753.26;86325;1288;98579;-74
2022/10/24 09:39:40;;;;;;;22.90;12.80;;;;;;;16.15;81.51;98754.95;86430;1296;22711;-73
2022/10/24 09:41:45;;;;;;;25.50;12.50;;;;;;;16.16;81.42;98754.02;86552;1283;25277;-73
2022/10/24 09:43:49;;;;;;;26.10;12.90;;;;;;;16.17;81.42;98756.24;86175;1284;99155;-74
2022/10/24 09:46:02;;;;;;;16.90;11.50;;;;;;;16.19;81.41;98756.15;86534;1282;24234;-74
2022/10/24 09:48:23;;;;;;;19.00;10.90;;;;;;;16.23;81.44;98755.69;86398;1281;26501;-75
2022/10/24 09:50:26;;;;;;;20.40;11.50;;;;;;;16.30;81.40;98757.23;86606;1284;23741;-72